Time;durP1;ratioP1;P1;durP2;ratioP2;P2;SDS_P1;SDS_P2;PMS_P1;PMS_P2;Temp;Humidity;BMP_temperature;BMP_pressure;BME280_temperature;BME280_humidity;BME280_pressure;Samples;Min_cycle;Max_cycle;Signal;HPM_P1;HPM_P2
2022/07/27 00:02:21;;;;;;;0.50;0.50;;;18.00;82.20;;;;;;5015750;28;20183;-69
2022/07/27 00:04:47;;;;;;;0.40;0.40;;;18.00;82.50;;;;;;5033441;28;20190;-69
2022/07/27 00:07:12;;;;;;;0.40;0.40;;;17.90;83.90;;;;;;5033314;28;20213;-69
2022/07/27 00:09:38;;;;;;;0.40;0.40;;;17.90;84.10;;;;;;5033786;28;20181;-68
2022/07/27 00:12:04;;;;;;;0.40;0.40;;;17.90;85.40;;;;;;5033267;28;20254;-69
2022/07/27 00:14:30;;;;;;;0.30;0.30;;;17.90;86.30;;;;;;5033404;28;20508;-70
2022/07/27 00:16:55;;;;;;;0.80;0.70;;;17.90;86.20;;;;;;5033297;28;20435;-69
2022/07/27 00:19:22;;;;;;;0.40;0.40;;;17.90;87.20;;;;;;5033348;28;20182;-69
2022/07/27 00:21:48;;;;;;;0.40;0.40;;;17.80;86.10;;;;;;5033477;28;20536;-69
2022/07/27 00:24:14;;;;;;;0.40;0.40;;;17.70;87.60;;;;;;5033245;28;20417;-69
2022/07/27 00:26:39;;;;;;;0.43;0.43;;;17.80;87.40;;;;;;5033329;28;20456;-69
2022/07/27 00:29:05;;;;;;;0.40;0.40;;;17.70;87.50;;;;;;5033391;28;20196;-69
2022/07/27 00:31:31;;;;;;;0.40;0.40;;;17.70;87.10;;;;;;5033311;28;20198;-69
2022/07/27 00:33:56;;;;;;;0.37;0.37;;;17.60;87.20;;;;;;5033197;28;20174;-68
2022/07/27 00:36:22;;;;;;;0.40;0.40;;;17.60;87.80;;;;;;5033368;28;20198;-69
2022/07/27 00:38:48;;;;;;;0.43;0.43;;;17.50;89.80;;;;;;5033073;28;20737;-68
2022/07/27 00:41:14;;;;;;;0.50;0.50;;;17.40;88.30;;;;;;5033169;28;20250;-68
2022/07/27 00:44:04;;;;;;;0.40;0.40;;;17.50;87.50;;;;;;5033023;28;20436;-69
2022/07/27 00:46:30;;;;;;;0.57;0.57;;;17.50;88.90;;;;;;5015860;28;20213;-69
2022/07/27 00:48:55;;;;;;;0.37;0.37;;;17.40;88.80;;;;;;5033041;28;20406;-69
2022/07/27 00:51:22;;;;;;;0.40;0.40;;;17.40;88.70;;;;;;5032805;28;20479;-69
2022/07/27 00:53:50;;;;;;;0.50;0.50;;;17.50;88.10;;;;;;5034342;28;20171;-69
2022/07/27 00:56:16;;;;;;;0.40;0.40;;;17.50;89.90;;;;;;5035839;28;20433;-69
2022/07/27 00:58:46;;;;;;;0.53;0.47;;;17.50;90.30;;;;;;5036821;28;20416;-69
2022/07/27 01:01:11;;;;;;;0.40;0.40;;;17.60;91.50;;;;;;5036770;28;20406;-69
2022/07/27 01:03:37;;;;;;;0.40;0.40;;;17.60;90.00;;;;;;5036406;28;20411;-69
2022/07/27 01:06:03;;;;;;;0.50;0.50;;;17.70;90.10;;;;;;5036765;28;20632;-69
2022/07/27 01:08:29;;;;;;;0.50;0.50;;;17.80;89.10;;;;;;5036494;28;20187;-69
2022/07/27 01:10:56;;;;;;;0.40;0.40;;;17.80;90.50;;;;;;5018573;28;20413;-70
2022/07/27 01:13:24;;;;;;;0.40;0.40;;;17.70;90.50;;;;;;5036098;28;20402;-69
2022/07/27 01:15:51;;;;;;;0.50;0.50;;;17.80;90.70;;;;;;5035593;28;20463;-69
2022/07/27 01:18:40;;;;;;;0.40;0.40;;;17.80;90.40;;;;;;5036507;28;20451;-69
2022/07/27 01:21:08;;;;;;;0.40;0.40;;;17.80;89.70;;;;;;5023692;28;20926;-69
2022/07/27 01:23:34;;;;;;;0.50;0.50;;;17.90;89.50;;;;;;5036057;28;20441;-69
2022/07/27 01:26:00;;;;;;;0.60;0.60;;;17.90;90.00;;;;;;5036339;28;20425;-69
2022/07/27 01:31:48;;;;;;;0.83;0.70;;;18.00;89.20;;;;;;5036380;28;20381;-69
2022/07/27 01:34:13;;;;;;;0.50;0.50;;;17.90;89.00;;;;;;5036163;28;20397;-69
2022/07/27 01:36:39;;;;;;;0.50;0.50;;;18.00;87.70;;;;;;5035994;28;20191;-68
2022/07/27 01:39:05;;;;;;;0.57;0.57;;;18.00;89.00;;;;;;5035981;28;20171;-69
2022/07/27 01:41:30;;;;;;;0.40;0.40;;;18.00;89.40;;;;;;5036001;28;20631;-69
2022/07/27 01:43:56;;;;;;;0.47;0.47;;;18.00;90.10;;;;;;5035837;28;20178;-69
2022/07/27 01:46:22;;;;;;;0.40;0.40;;;18.00;90.40;;;;;;5036096;28;20278;-69
2022/07/27 01:48:48;;;;;;;0.40;0.40;;;18.00;90.70;;;;;;5035827;28;20171;-69
2022/07/27 01:51:13;;;;;;;0.50;0.50;;;18.00;90.10;;;;;;5035975;28;20174;-69
2022/07/27 01:53:39;;;;;;;0.40;0.40;;;17.90;89.10;;;;;;5035592;28;20627;-68
2022/07/27 01:56:12;;;;;;;0.40;0.40;;;17.90;90.20;;;;;;5035694;28;20170;-69
2022/07/27 01:58:39;;;;;;;0.80;0.60;;;17.90;90.60;;;;;;5035727;28;20440;-69
2022/07/27 02:01:06;;;;;;;0.67;0.67;;;17.90;91.00;;;;;;5035851;28;20804;-69
2022/07/27 02:03:32;;;;;;;0.53;0.53;;;17.90;90.80;;;;;;5034921;28;20394;-69
2022/07/27 02:05:58;;;;;;;0.40;0.40;;;17.80;90.60;;;;;;5035001;28;20492;-69
2022/07/27 02:08:23;;;;;;;0.60;0.60;;;17.80;91.40;;;;;;5017683;28;20528;-69
2022/07/27 02:13:33;;;;;;;0.50;0.50;;;17.80;91.00;;;;;;5035446;28;20753;-69
2022/07/27 02:16:00;;;;;;;0.53;0.53;;;17.80;91.00;;;;;;5035634;28;20441;-69
2022/07/27 02:18:25;;;;;;;0.40;0.40;;;17.80;91.30;;;;;;5035201;28;20227;-69
2022/07/27 02:20:51;;;;;;;0.50;0.47;;;17.80;91.30;;;;;;5035411;28;20595;-69
2022/07/27 02:23:17;;;;;;;1.17;0.77;;;17.80;91.50;;;;;;5035065;28;20493;-69
2022/07/27 02:25:43;;;;;;;0.50;0.50;;;17.80;91.70;;;;;;5035125;28;20174;-69
2022/07/27 02:28:08;;;;;;;0.60;0.60;;;17.80;91.80;;;;;;5034953;28;20256;-69
2022/07/27 02:30:34;;;;;;;0.80;0.80;;;17.80;91.10;;;;;;5035283;28;20194;-69
2022/07/27 02:33:00;;;;;;;0.60;0.60;;;17.80;91.50;;;;;;5034890;28;20206;-69
2022/07/27 02:35:25;;;;;;;0.30;0.30;;;17.90;91.20;;;;;;5035119;28;20632;-69
2022/07/27 02:37:51;;;;;;;0.50;0.50;;;17.90;91.10;;;;;;5034917;28;20234;-69
2022/07/27 02:40:17;;;;;;;0.40;0.40;;;17.90;91.80;;;;;;5034924;28;20179;-68
2022/07/27 02:42:44;;;;;;;0.70;0.70;;;17.90;92.00;;;;;;5034753;28;20266;-69
2022/07/27 02:45:10;;;;;;;0.60;0.60;;;17.90;91.80;;;;;;5034897;28;20434;-69
2022/07/27 02:47:38;;;;;;;0.57;0.57;;;17.90;91.30;;;;;;5034503;28;20543;-69
2022/07/27 02:50:05;;;;;;;0.43;0.43;;;17.90;91.40;;;;;;5034646;28;20488;-69
2022/07/27 02:52:31;;;;;;;0.60;0.60;;;17.90;91.70;;;;;;5034493;28;20402;-69
2022/07/27 02:54:57;;;;;;;0.60;0.60;;;18.00;92.40;;;;;;5034797;28;20412;-69
2022/07/27 02:57:23;;;;;;;0.40;0.40;;;17.90;92.20;;;;;;5034448;28;20429;-69
2022/07/27 02:59:49;;;;;;;0.40;0.40;;;17.90;92.40;;;;;;5034489;28;20175;-70
2022/07/27 03:02:14;;;;;;;0.40;0.40;;;17.90;93.00;;;;;;5034393;28;20727;-69
2022/07/27 03:04:40;;;;;;;0.53;0.53;;;17.90;92.60;;;;;;5034462;28;20171;-69
2022/07/27 03:07:06;;;;;;;0.67;0.40;;;17.90;92.10;;;;;;5034213;28;20511;-69
2022/07/27 03:09:31;;;;;;;0.40;0.40;;;17.90;92.20;;;;;;5034386;28;20195;-69
2022/07/27 03:11:57;;;;;;;0.40;0.40;;;17.80;92.10;;;;;;5034177;28;20225;-69
2022/07/27 03:14:23;;;;;;;0.50;0.50;;;17.80;92.20;;;;;;5034441;28;20167;-69
2022/07/27 03:16:48;;;;;;;1.87;1.00;;;17.60;92.20;;;;;;5033897;28;20195;-68
2022/07/27 03:19:14;;;;;;;0.40;0.40;;;17.60;92.30;;;;;;5034148;28;20677;-69
2022/07/27 03:21:39;;;;;;;0.40;0.40;;;17.70;92.70;;;;;;5034128;28;20171;-69
2022/07/27 03:24:05;;;;;;;0.97;0.97;;;17.70;92.60;;;;;;5033968;28;20175;-69
2022/07/27 03:26:32;;;;;;;0.83;0.50;;;17.70;92.90;;;;;;5034041;28;20206;-69
2022/07/27 03:28:58;;;;;;;0.60;0.60;;;17.70;91.90;;;;;;5033950;28;20414;-69
2022/07/27 03:31:24;;;;;;;0.40;0.40;;;17.80;92.30;;;;;;5033819;28;20406;-68
2022/07/27 03:33:49;;;;;;;0.40;0.40;;;17.80;92.00;;;;;;5033715;28;20780;-69
2022/07/27 03:36:15;;;;;;;0.53;0.53;;;17.80;92.20;;;;;;5034193;28;20633;-69
2022/07/27 03:38:41;;;;;;;0.60;0.60;;;17.80;92.10;;;;;;5033785;28;20186;-69
2022/07/27 03:41:06;;;;;;;0.90;0.80;;;17.70;92.00;;;;;;5033875;28;20170;-69
2022/07/27 03:43:33;;;;;;;0.40;0.40;;;17.70;91.70;;;;;;5033640;28;20657;-69
2022/07/27 03:45:59;;;;;;;0.50;0.50;;;17.70;91.70;;;;;;5033815;28;20171;-69
2022/07/27 03:48:26;;;;;;;0.80;0.80;;;17.70;91.70;;;;;;5033582;28;20544;-69
2022/07/27 03:50:52;;;;;;;0.70;0.70;;;17.70;91.30;;;;;;5033599;28;20163;-69
2022/07/27 03:53:20;;;;;;;0.40;0.40;;;17.60;91.60;;;;;;5033409;28;20437;-69
2022/07/27 03:55:46;;;;;;;0.70;0.50;;;17.60;91.80;;;;;;5034026;28;20765;-68
2022/07/27 03:58:12;;;;;;;0.60;0.60;;;17.50;92.10;;;;;;5033472;28;20987;-68
2022/07/27 04:00:38;;;;;;;0.70;0.70;;;17.60;92.20;;;;;;5033512;28;20417;-69
2022/07/27 04:03:04;;;;;;;0.40;0.40;;;17.50;91.70;;;;;;5033394;28;20631;-69
2022/07/27 04:05:29;;;;;;;1.17;0.50;;;17.40;91.90;;;;;;5033526;28;20257;-69
2022/07/27 04:07:55;;;;;;;0.40;0.40;;;17.30;92.30;;;;;;5033347;28;20688;-69
2022/07/27 04:10:21;;;;;;;0.53;0.53;;;17.20;92.10;;;;;;5033378;28;20171;-69
2022/07/27 04:12:47;;;;;;;0.70;0.70;;;17.30;92.60;;;;;;5033310;28;20531;-68
2022/07/27 04:15:12;;;;;;;0.40;0.40;;;17.20;92.80;;;;;;5033299;28;20397;-69
2022/07/27 04:17:38;;;;;;;0.83;0.63;;;17.00;92.50;;;;;;5033307;28;20205;-69
2022/07/27 04:20:04;;;;;;;0.80;0.70;;;16.90;92.90;;;;;;5033391;28;20561;-68
2022/07/27 04:22:30;;;;;;;0.73;0.73;;;16.90;93.10;;;;;;5033187;28;20183;-69
2022/07/27 04:24:56;;;;;;;0.40;0.40;;;17.00;93.50;;;;;;5033262;28;20460;-68
2022/07/27 04:27:21;;;;;;;1.30;0.97;;;17.00;93.80;;;;;;5033897;28;20211;-69
2022/07/27 04:29:47;;;;;;;0.40;0.40;;;17.10;93.40;;;;;;5037266;28;20572;-69
2022/07/27 04:32:12;;;;;;;0.50;0.50;;;17.10;93.80;;;;;;5037064;28;20229;-69
2022/07/27 04:34:38;;;;;;;0.50;0.50;;;17.10;93.70;;;;;;5037263;28;20174;-69
2022/07/27 04:37:04;;;;;;;0.60;0.60;;;17.20;94.10;;;;;;5037070;28;20586;-69
2022/07/27 04:39:30;;;;;;;0.40;0.40;;;17.30;93.40;;;;;;5037366;28;20186;-69
2022/07/27 04:41:55;;;;;;;0.50;0.50;;;17.30;93.40;;;;;;5037039;28;20448;-69
2022/07/27 04:44:21;;;;;;;0.50;0.50;;;17.30;93.60;;;;;;5037146;28;20654;-69
2022/07/27 04:46:47;;;;;;;0.60;0.40;;;17.30;93.50;;;;;;5037042;28;20255;-69
2022/07/27 04:49:13;;;;;;;0.90;0.90;;;17.30;93.60;;;;;;5036993;28;20254;-69
2022/07/27 04:51:43;;;;;;;0.50;0.40;;;17.30;93.30;;;;;;5037133;28;20174;-68
2022/07/27 04:54:09;;;;;;;0.70;0.70;;;17.30;93.10;;;;;;5036886;28;20402;-70
2022/07/27 04:56:34;;;;;;;0.40;0.40;;;17.40;92.80;;;;;;5036731;28;20774;-69
2022/07/27 04:59:00;;;;;;;0.80;0.80;;;17.40;93.20;;;;;;5036722;28;20639;-69
2022/07/27 05:01:25;;;;;;;0.50;0.50;;;17.50;93.70;;;;;;5036717;28;20639;-69
2022/07/27 05:03:51;;;;;;;0.50;0.50;;;17.50;94.10;;;;;;5036516;28;20181;-69
2022/07/27 05:06:17;;;;;;;0.77;0.77;;;17.70;94.20;;;;;;5036588;28;20179;-69
2022/07/27 05:08:43;;;;;;;0.50;0.50;;;17.80;93.80;;;;;;5036651;28;20285;-69
2022/07/27 05:11:09;;;;;;;0.50;0.50;;;17.80;93.40;;;;;;5036785;28;20402;-68
2022/07/27 05:13:39;;;;;;;0.50;0.50;;;17.80;93.60;;;;;;5036289;28;20173;-69
2022/07/27 05:16:08;;;;;;;0.40;0.40;;;17.80;93.90;;;;;;5036746;28;20194;-69
2022/07/27 05:18:34;;;;;;;0.57;0.57;;;17.80;94.10;;;;;;5036367;28;20464;-69
2022/07/27 05:21:00;;;;;;;0.70;0.67;;;17.70;93.70;;;;;;5036494;28;20834;-69
2022/07/27 05:23:26;;;;;;;0.77;0.63;;;17.80;93.50;;;;;;5036307;28;20901;-68
2022/07/27 05:25:52;;;;;;;0.30;0.30;;;18.00;93.70;;;;;;5036465;28;20406;-68
2022/07/27 05:28:18;;;;;;;0.60;0.60;;;18.20;93.90;;;;;;5036019;28;20624;-68
2022/07/27 05:30:43;;;;;;;0.50;0.50;;;18.50;92.90;;;;;;5036154;28;20194;-69
2022/07/27 05:33:09;;;;;;;0.70;0.70;;;18.90;92.80;;;;;;5035978;28;20405;-69
2022/07/27 05:35:35;;;;;;;0.73;0.50;;;19.20;91.80;;;;;;5036157;28;20179;-69
2022/07/27 05:38:01;;;;;;;0.40;0.40;;;19.30;91.50;;;;;;5035606;28;20214;-69
2022/07/27 05:40:27;;;;;;;0.60;0.60;;;19.40;91.00;;;;;;5036229;28;20915;-69
2022/07/27 05:42:53;;;;;;;0.40;0.40;;;19.50;90.60;;;;;;5018112;28;20618;-69
2022/07/27 05:45:18;;;;;;;0.43;0.43;;;19.50;90.60;;;;;;5035942;28;20182;-69
2022/07/27 05:47:44;;;;;;;2.47;0.63;;;19.60;89.20;;;;;;5035766;28;20203;-68
2022/07/27 05:50:10;;;;;;;0.50;0.50;;;19.60;89.30;;;;;;5035839;28;20178;-68
2022/07/27 05:52:35;;;;;;;0.40;0.40;;;19.50;88.80;;;;;;5017928;28;20185;-69
2022/07/27 05:55:01;;;;;;;0.40;0.40;;;19.60;88.60;;;;;;5036014;28;20179;-69
2022/07/27 05:57:27;;;;;;;1.17;0.70;;;19.70;89.60;;;;;;5035719;28;20600;-69
2022/07/27 05:59:53;;;;;;;0.50;0.50;;;19.70;89.50;;;;;;5035695;28;20233;-68
2022/07/27 06:02:20;;;;;;;0.40;0.40;;;19.60;88.40;;;;;;5035438;28;20171;-69
2022/07/27 06:04:46;;;;;;;1.23;1.13;;;19.70;88.70;;;;;;5035643;28;20406;-68
2022/07/27 06:09:56;;;;;;;0.57;0.57;;;19.90;87.00;;;;;;5035761;28;20762;-69
2022/07/27 06:12:21;;;;;;;0.40;0.40;;;20.00;87.40;;;;;;5035255;28;20410;-69
2022/07/27 06:14:47;;;;;;;0.50;0.50;;;20.20;88.10;;;;;;5035397;28;20169;-68
2022/07/27 06:17:14;;;;;;;0.40;0.40;;;20.50;87.50;;;;;;5035270;28;20190;-69
2022/07/27 06:19:40;;;;;;;1.17;0.80;;;20.70;88.50;;;;;;5033019;28;20704;-69
2022/07/27 06:22:06;;;;;;;1.17;1.07;;;20.90;84.30;;;;;;5034157;28;20409;-69
2022/07/27 06:24:32;;;;;;;0.40;0.40;;;21.10;83.60;;;;;;5034881;28;20177;-68
2022/07/27 06:26:58;;;;;;;0.50;0.50;;;21.30;81.70;;;;;;5033542;28;20457;-68
2022/07/27 06:29:24;;;;;;;0.30;0.30;;;21.80;81.60;;;;;;5033529;28;20747;-68
2022/07/27 06:31:50;;;;;;;0.40;0.40;;;22.10;79.90;;;;;;5034489;28;20416;-69
2022/07/27 06:34:16;;;;;;;0.70;0.70;;;22.40;79.20;;;;;;5033245;28;20835;-69
2022/07/27 06:36:43;;;;;;;0.60;0.40;;;22.90;75.40;;;;;;5035314;28;20578;-68
2022/07/27 06:39:12;;;;;;;0.50;0.50;;;23.50;76.50;;;;;;5035080;28;20217;-69
2022/07/27 06:41:38;;;;;;;0.50;0.50;;;24.10;73.70;;;;;;5035032;28;20496;-69
2022/07/27 06:44:04;;;;;;;0.50;0.50;;;24.40;69.60;;;;;;5032302;28;20944;-66
2022/07/27 06:46:30;;;;;;;0.40;0.40;;;24.50;68.90;;;;;;5035090;28;20199;-66
2022/07/27 06:48:56;;;;;;;0.50;0.50;;;24.30;69.10;;;;;;5034623;28;20398;-66
2022/07/27 06:51:22;;;;;;;0.60;0.60;;;23.80;66.00;;;;;;5032869;28;20179;-66
2022/07/27 06:53:51;;;;;;;0.40;0.40;;;23.20;67.10;;;;;;5034074;28;20413;-66
2022/07/27 06:56:18;;;;;;;0.40;0.40;;;22.70;71.20;;;;;;5034974;28;20408;-66
2022/07/27 06:58:43;;;;;;;0.50;0.50;;;22.40;70.10;;;;;;5034951;28;20409;-67
2022/07/27 07:01:09;;;;;;;0.30;0.30;;;22.20;70.10;;;;;;5035062;28;20461;-67
2022/07/27 07:03:35;;;;;;;0.40;0.40;;;22.10;73.80;;;;;;5034434;28;20176;-70
2022/07/27 07:06:01;;;;;;;0.40;0.40;;;22.20;72.80;;;;;;5017295;28;20260;-70
2022/07/27 07:08:26;;;;;;;0.40;0.40;;;22.30;70.20;;;;;;5034358;28;20225;-70
2022/07/27 07:10:52;;;;;;;0.30;0.30;;;22.40;65.70;;;;;;5034605;28;20167;-70
2022/07/27 07:13:18;;;;;;;0.40;0.40;;;22.60;64.20;;;;;;5032760;28;20178;-69
2022/07/27 07:15:43;;;;;;;0.87;0.60;;;22.90;65.40;;;;;;5034357;28;20706;-70
2022/07/27 07:18:11;;;;;;;0.47;0.47;;;23.20;65.20;;;;;;5033059;28;20224;-70
2022/07/27 07:20:37;;;;;;;0.40;0.40;;;23.70;66.20;;;;;;5013502;28;20184;-70
2022/07/27 07:23:04;;;;;;;0.40;0.40;;;24.10;65.20;;;;;;5033358;28;20410;-70
2022/07/27 07:25:31;;;;;;;0.87;0.50;;;24.80;59.90;;;;;;5033019;28;20379;-70
2022/07/27 07:27:57;;;;;;;0.40;0.40;;;25.70;58.50;;;;;;5034276;28;20482;-70
2022/07/27 07:30:23;;;;;;;0.80;0.60;;;26.10;56.10;;;;;;5034473;28;20864;-71
2022/07/27 07:32:49;;;;;;;0.57;0.57;;;26.20;54.90;;;;;;5033994;28;20225;-70
2022/07/27 07:35:15;;;;;;;0.50;0.50;;;26.40;53.70;;;;;;5033971;28;20380;-71
2022/07/27 07:37:41;;;;;;;0.50;0.50;;;26.60;53.80;;;;;;5016123;28;20798;-70
2022/07/27 07:40:09;;;;;;;0.50;0.50;;;26.90;53.40;;;;;;5034242;28;20406;-70
2022/07/27 07:42:59;;;;;;;0.50;0.50;;;27.00;52.30;;;;;;5033791;28;20582;-70
2022/07/27 07:45:26;;;;;;;1.17;0.63;;;26.70;54.50;;;;;;5034486;28;20408;-70
2022/07/27 07:47:53;;;;;;;0.50;0.40;;;26.30;52.40;;;;;;5033845;28;20469;-70
2022/07/27 07:50:19;;;;;;;0.40;0.40;;;26.00;54.30;;;;;;5033824;28;20413;-70
2022/07/27 07:52:47;;;;;;;0.37;0.37;;;25.60;57.30;;;;;;5033584;28;20387;-70
2022/07/27 07:55:14;;;;;;;0.50;0.40;;;25.30;54.70;;;;;;5033876;28;20379;-70
2022/07/27 07:57:39;;;;;;;0.50;0.50;;;25.10;58.50;;;;;;5034046;28;20739;-71
2022/07/27 08:00:07;;;;;;;0.40;0.40;;;25.00;57.50;;;;;;5034340;28;20393;-70
2022/07/27 08:02:46;;;;;;;0.40;0.40;;;24.90;58.50;;;;;;5033538;28;20164;-70
2022/07/27 08:05:12;;;;;;;0.40;0.40;;;24.90;58.30;;;;;;5032315;28;20389;-69
2022/07/27 08:07:38;;;;;;;0.57;0.57;;;25.00;56.80;;;;;;5033189;28;20445;-70
2022/07/27 08:10:06;;;;;;;0.40;0.30;;;25.00;56.80;;;;;;5033688;28;20404;-69
2022/07/27 08:12:32;;;;;;;0.40;0.40;;;25.30;55.60;;;;;;5033334;28;20172;-70
2022/07/27 08:14:58;;;;;;;0.50;0.50;;;25.50;55.80;;;;;;5033359;28;20436;-70
2022/07/27 08:17:24;;;;;;;0.50;0.50;;;25.30;54.70;;;;;;5033418;28;20491;-70
2022/07/27 08:19:49;;;;;;;0.50;0.50;;;25.20;56.80;;;;;;5033317;28;20180;-70
2022/07/27 08:22:15;;;;;;;0.40;0.40;;;25.30;55.70;;;;;;5033248;28;20216;-70
2022/07/27 08:24:40;;;;;;;0.60;0.50;;;25.60;55.00;;;;;;5033424;28;20257;-69
2022/07/27 08:27:06;;;;;;;0.40;0.40;;;25.80;54.80;;;;;;5015480;28;20579;-70
2022/07/27 08:29:32;;;;;;;0.40;0.40;;;25.70;53.40;;;;;;5033229;28;20174;-70
2022/07/27 08:31:57;;;;;;;0.40;0.40;;;26.40;54.90;;;;;;5033080;28;20167;-69
2022/07/27 08:34:23;;;;;;;1.77;0.70;;;27.10;52.60;;;;;;5031290;28;20171;-70
2022/07/27 08:36:48;;;;;;;0.40;0.40;;;27.40;53.80;;;;;;5033317;28;20584;-70
2022/07/27 08:39:14;;;;;;;0.50;0.50;;;27.10;53.60;;;;;;5014698;28;20166;-70
2022/07/27 08:41:41;;;;;;;0.97;0.60;;;26.50;53.10;;;;;;5033321;28;20534;-70
2022/07/27 08:44:11;;;;;;;0.40;0.40;;;26.00;54.10;;;;;;5032946;28;20170;-70
2022/07/27 08:46:39;;;;;;;0.47;0.47;;;25.60;53.90;;;;;;5032971;28;21002;-70
2022/07/27 08:49:06;;;;;;;0.50;0.50;;;25.10;53.90;;;;;;5033476;28;20412;-69
2022/07/27 08:51:31;;;;;;;0.50;0.50;;;24.70;55.00;;;;;;5033201;28;20397;-70
2022/07/27 08:53:58;;;;;;;0.40;0.40;;;24.50;57.10;;;;;;5015789;28;20384;-70
2022/07/27 08:56:24;;;;;;;0.30;0.30;;;24.30;58.30;;;;;;5033222;28;20174;-70
2022/07/27 08:58:49;;;;;;;0.50;0.50;;;24.30;58.00;;;;;;5033083;28;20380;-70
2022/07/27 09:01:15;;;;;;;0.60;0.57;;;24.20;57.30;;;;;;5033176;28;20182;-70
2022/07/27 09:03:40;;;;;;;0.50;0.50;;;24.20;56.90;;;;;;5032679;28;20176;-71
2022/07/27 09:06:06;;;;;;;0.40;0.40;;;24.10;56.80;;;;;;5031644;28;20167;-70
2022/07/27 09:08:32;;;;;;;0.40;0.40;;;23.90;55.80;;;;;;5033385;28;20678;-70
2022/07/27 09:10:59;;;;;;;0.40;0.40;;;23.80;56.50;;;;;;5032755;28;20159;-71
2022/07/27 09:13:26;;;;;;;0.80;0.70;;;23.90;57.10;;;;;;5033443;28;20467;-71
2022/07/27 09:16:06;;;;;;;0.60;0.60;;;24.00;56.60;;;;;;5036517;28;20402;-70
2022/07/27 09:18:33;;;;;;;0.40;0.40;;;24.00;59.10;;;;;;5035100;28;20761;-70
2022/07/27 09:21:17;;;;;;;0.33;0.33;;;24.10;57.30;;;;;;5036528;28;20395;-69
2022/07/27 09:23:56;;;;;;;0.30;0.30;;;23.80;58.90;;;;;;5033781;28;20409;-70
2022/07/27 09:26:23;;;;;;;0.60;0.60;;;23.70;57.50;;;;;;5017367;28;20421;-70
2022/07/27 09:29:09;;;;;;;0.60;0.60;;;23.70;57.30;;;;;;5034305;28;20420;-70
2022/07/27 09:31:48;;;;;;;0.40;0.40;;;23.90;58.90;;;;;;5036285;28;20372;-70
2022/07/27 09:34:30;;;;;;;0.50;0.50;;;24.20;57.40;;;;;;5036083;28;20405;-70
2022/07/27 09:36:57;;;;;;;0.50;0.50;;;24.20;57.60;;;;;;5035890;28;20519;-70
2022/07/27 09:39:24;;;;;;;0.67;0.57;;;24.50;56.80;;;;;;5036113;28;20386;-71
2022/07/27 09:41:56;;;;;;;0.40;0.40;;;24.90;55.70;;;;;;5036047;28;20382;-71
2022/07/27 09:44:38;;;;;;;0.40;0.40;;;26.20;57.30;;;;;;5036224;28;20401;-70
2022/07/27 09:47:20;;;;;;;1.47;0.57;;;27.30;51.00;;;;;;5035731;28;20467;-70
2022/07/27 09:49:46;;;;;;;0.63;0.63;;;27.90;53.90;;;;;;5035699;28;20380;-70
2022/07/27 09:52:25;;;;;;;0.60;0.60;;;28.30;49.70;;;;;;5035919;28;20405;-71
2022/07/27 09:54:51;;;;;;;0.40;0.40;;;28.10;51.70;;;;;;5035893;28;20506;-71
2022/07/27 09:57:17;;;;;;;0.40;0.40;;;27.60;51.10;;;;;;5035656;28;20433;-70
2022/07/27 09:59:43;;;;;;;0.50;0.50;;;27.40;52.00;;;;;;5035660;28;20463;-70
2022/07/27 10:02:12;;;;;;;0.37;0.37;;;27.30;51.40;;;;;;5033952;28;20437;-70
2022/07/27 10:04:39;;;;;;;0.53;0.53;;;27.90;51.50;;;;;;5034063;28;20933;-71
2022/07/27 10:07:05;;;;;;;0.70;0.50;;;28.10;51.60;;;;;;5033472;28;20500;-70
2022/07/27 10:09:32;;;;;;;0.93;0.50;;;28.00;50.60;;;;;;5034398;28;20449;-72
2022/07/27 10:11:58;;;;;;;0.40;0.40;;;27.60;50.30;;;;;;5035543;28;20416;-71
2022/07/27 10:14:24;;;;;;;0.40;0.40;;;27.50;52.50;;;;;;5035466;28;20402;-70
2022/07/27 10:16:52;;;;;;;0.70;0.70;;;28.30;51.60;;;;;;5034985;28;20444;-70
2022/07/27 10:19:26;;;;;;;0.50;0.47;;;28.90;49.90;;;;;;5035326;28;20167;-71
2022/07/27 10:21:52;;;;;;;0.60;0.47;;;29.40;47.10;;;;;;5035305;28;20406;-70
2022/07/27 10:24:36;;;;;;;0.83;0.83;;;30.20;47.20;;;;;;5035197;28;20410;-71
2022/07/27 10:27:17;;;;;;;0.40;0.40;;;30.40;45.20;;;;;;5034812;28;20460;-70
2022/07/27 10:29:42;;;;;;;0.50;0.50;;;29.70;46.00;;;;;;5035296;28;20416;-70
2022/07/27 10:32:08;;;;;;;0.40;0.40;;;28.80;46.60;;;;;;5017322;28;20406;-71
2022/07/27 10:34:39;;;;;;;0.50;0.50;;;28.50;52.10;;;;;;5017389;28;20166;-71
2022/07/27 10:37:12;;;;;;;0.60;0.60;;;29.50;48.90;;;;;;5034967;28;20242;-70
2022/07/27 10:39:48;;;;;;;0.50;0.50;;;29.50;49.00;;;;;;5034924;28;20409;-70
2022/07/27 10:42:28;;;;;;;0.60;0.50;;;30.30;47.40;;;;;;5034959;28;20412;-71
2022/07/27 10:44:55;;;;;;;0.50;0.50;;;31.10;45.10;;;;;;5034660;28;20975;-71
2022/07/27 10:47:34;;;;;;;0.70;0.50;;;31.40;44.80;;;;;;5034646;28;20456;-70
2022/07/27 10:50:15;;;;;;;0.63;0.63;;;30.90;44.70;;;;;;5034658;28;20410;-71
2022/07/27 10:52:54;;;;;;;0.50;0.40;;;30.70;47.60;;;;;;5016779;28;20754;-71
2022/07/27 10:55:29;;;;;;;0.80;0.80;;;30.30;46.00;;;;;;5034835;28;20402;-71
2022/07/27 10:58:21;;;;;;;0.50;0.50;;;29.60;46.50;;;;;;5034643;28;20424;-70
2022/07/27 11:00:49;;;;;;;0.40;0.40;;;28.10;47.10;;;;;;5034598;28;20415;-70
2022/07/27 11:03:25;;;;;;;0.50;0.50;;;27.20;48.50;;;;;;5016590;28;20761;-70
2022/07/27 11:06:33;;;;;;;0.40;0.40;;;26.80;50.10;;;;;;5034606;28;20424;-70
2022/07/27 11:09:01;;;;;;;0.50;0.50;;;26.40;49.90;;;;;;4935163;29;20444;-71
2022/07/27 11:11:27;;;;;;;0.40;0.40;;;25.80;50.50;;;;;;5015067;28;20478;-71
2022/07/27 11:13:57;;;;;;;0.40;0.40;;;25.50;52.30;;;;;;5034275;28;20475;-70
2022/07/27 11:16:23;;;;;;;0.80;0.80;;;25.50;53.50;;;;;;5034126;28;20407;-70
2022/07/27 11:19:02;;;;;;;0.40;0.40;;;25.60;52.70;;;;;;5034187;28;20411;-71
2022/07/27 11:21:33;;;;;;;0.47;0.47;;;25.80;53.10;;;;;;5034231;28;20419;-71
2022/07/27 11:24:11;;;;;;;0.60;0.60;;;25.80;52.10;;;;;;5034046;28;20384;-70
2022/07/27 11:26:49;;;;;;;0.70;0.70;;;25.80;52.00;;;;;;5034064;28;20518;-70
2022/07/27 11:29:17;;;;;;;0.50;0.50;;;25.70;52.90;;;;;;5030771;28;20382;-71
2022/07/27 11:31:44;;;;;;;0.90;0.53;;;25.80;53.80;;;;;;5032879;28;20430;-71
2022/07/27 11:34:12;;;;;;;0.40;0.40;;;26.10;54.70;;;;;;5014226;28;20950;-71
2022/07/27 11:36:44;;;;;;;0.40;0.40;;;26.30;51.50;;;;;;5033398;28;20439;-70
2022/07/27 11:39:13;;;;;;;0.40;0.40;;;26.20;52.30;;;;;;5033223;28;20444;-70
2022/07/27 11:41:40;;;;;;;0.43;0.43;;;26.00;52.20;;;;;;5033098;28;20774;-70
2022/07/27 11:44:11;;;;;;;0.57;0.57;;;25.80;52.00;;;;;;5033414;28;20436;-71
2022/07/27 11:46:41;;;;;;;0.60;0.60;;;25.70;54.00;;;;;;5034125;28;20421;-70
2022/07/27 11:49:11;;;;;;;0.83;0.60;;;26.00;56.30;;;;;;5034460;28;20424;-70
2022/07/27 11:51:41;;;;;;;0.43;0.43;;;26.40;53.10;;;;;;5033888;28;20463;-70
2022/07/27 11:54:19;;;;;;;0.97;0.53;;;26.90;55.20;;;;;;5033525;28;20846;-71
2022/07/27 11:56:49;;;;;;;0.60;0.60;;;27.10;54.30;;;;;;5033960;28;20399;-71
2022/07/27 11:59:21;;;;;;;0.50;0.50;;;27.50;51.50;;;;;;5033933;28;20398;-70
2022/07/27 12:01:48;;;;;;;0.80;0.60;;;27.70;48.80;;;;;;5034210;28;20941;-70
2022/07/27 12:04:20;;;;;;;0.70;0.60;;;27.50;49.70;;;;;;5033656;28;20536;-71
2022/07/27 12:07:12;;;;;;;0.50;0.50;;;27.20;50.80;;;;;;5033609;28;20453;-70
2022/07/27 12:09:49;;;;;;;0.50;0.47;;;26.90;50.60;;;;;;5032142;28;20408;-71
2022/07/27 12:12:25;;;;;;;0.60;0.60;;;26.50;51.20;;;;;;5033269;28;20424;-71
2022/07/27 12:14:55;;;;;;;0.40;0.40;;;26.20;53.10;;;;;;5033706;28;20381;-71
2022/07/27 12:17:26;;;;;;;0.70;0.70;;;25.90;52.60;;;;;;5033490;28;20919;-70
2022/07/27 12:20:02;;;;;;;0.70;0.60;;;25.90;53.90;;;;;;5033660;28;20381;-70
2022/07/27 12:22:29;;;;;;;0.70;0.70;;;25.90;54.20;;;;;;5032927;28;20510;-71
2022/07/27 12:24:57;;;;;;;0.50;0.50;;;25.70;53.50;;;;;;5033138;28;20415;-72
2022/07/27 12:27:25;;;;;;;0.50;0.50;;;25.70;53.60;;;;;;5033428;28;20434;-70
2022/07/27 12:30:09;;;;;;;0.60;0.60;;;25.80;54.50;;;;;;5033357;28;20494;-71
2022/07/27 12:32:39;;;;;;;0.87;0.40;;;25.80;53.40;;;;;;5033283;28;20419;-70
2022/07/27 12:35:27;;;;;;;0.80;0.80;;;25.80;54.50;;;;;;5033376;28;20384;-71
2022/07/27 12:38:01;;;;;;;0.47;0.43;;;26.10;54.40;;;;;;5033179;28;20953;-70
2022/07/27 12:40:28;;;;;;;0.90;0.77;;;26.50;52.50;;;;;;5033339;28;20406;-71
2022/07/27 12:43:05;;;;;;;0.40;0.40;;;26.70;52.10;;;;;;5033042;28;20834;-72
2022/07/27 12:45:34;;;;;;;0.97;0.63;;;27.00;52.10;;;;;;5033443;28;20811;-70
2022/07/27 12:48:20;;;;;;;0.40;0.40;;;27.20;49.70;;;;;;5033140;28;20472;-72
2022/07/27 12:50:55;;;;;;;0.63;0.50;;;27.10;49.80;;;;;;5037113;28;20397;-70
2022/07/27 12:53:21;;;;;;;0.50;0.50;;;26.90;51.30;;;;;;5036968;28;20608;-71
2022/07/27 12:55:47;;;;;;;0.50;0.50;;;26.60;51.10;;;;;;5037071;28;20525;-70
2022/07/27 12:58:13;;;;;;;0.57;0.57;;;26.40;52.60;;;;;;5035494;28;20671;-70
2022/07/27 13:00:39;;;;;;;0.50;0.50;;;26.20;54.40;;;;;;5036613;28;20170;-70
2022/07/27 13:03:06;;;;;;;0.40;0.40;;;25.80;52.30;;;;;;5034937;28;20191;-70